createdAt,value
2022-10-01T00:02:02.539Z,6.17
2022-10-01T00:04:50.798Z,4.40
2022-10-01T00:07:39.872Z,5.57
2022-10-01T00:10:30.587Z,4.63
2022-10-01T00:13:18.030Z,5.83
2022-10-01T00:16:07.964Z,8.67
2022-10-01T00:18:56.192Z,7.73
2022-10-01T00:21:43.429Z,8.20
2022-10-01T00:24:31.241Z,9.27
2022-10-01T00:27:19.128Z,8.23
2022-10-01T00:30:07.930Z,8.83
2022-10-01T00:32:55.830Z,10.80
2022-10-01T00:35:43.692Z,7.93
2022-10-01T00:38:31.163Z,10.50
2022-10-01T00:41:20.373Z,11.27
2022-10-01T00:44:26.763Z,9.57
2022-10-01T00:47:17.505Z,9.87
2022-10-01T00:50:08.065Z,11.10
2022-10-01T00:52:58.156Z,10.73
2022-10-01T00:55:47.193Z,10.93
2022-10-01T00:58:35.092Z,9.67
2022-10-01T01:01:24.676Z,12.07
2022-10-01T01:04:18.572Z,15.73
2022-10-01T01:07:07.116Z,12.50
2022-10-01T01:09:55.532Z,13.83
2022-10-01T01:12:56.099Z,10.27
2022-10-01T01:15:57.944Z,12.97
2022-10-01T01:18:58.590Z,12.50
2022-10-01T01:21:48.144Z,14.60
2022-10-01T01:24:45.626Z,12.07
2022-10-01T01:27:44.801Z,13.67
2022-10-01T01:30:33.721Z,13.87
2022-10-01T01:33:23.263Z,14.67
2022-10-01T01:36:16.710Z,12.47
2022-10-01T01:39:05.692Z,12.33
2022-10-01T01:41:56.575Z,13.63
2022-10-01T01:44:46.449Z,15.17
2022-10-01T01:47:34.482Z,14.27
2022-10-01T01:50:22.753Z,11.80
2022-10-01T01:53:10.239Z,13.07
2022-10-01T01:55:58.362Z,13.20
2022-10-01T01:58:46.877Z,13.03
2022-10-01T02:01:41.469Z,11.90
2022-10-01T02:04:36.948Z,13.67
2022-10-01T02:07:45.065Z,13.77
2022-10-01T02:10:56.442Z,14.97
2022-10-01T02:13:46.773Z,11.00
2022-10-01T02:16:58.305Z,10.70
2022-10-01T02:19:56.440Z,12.40
2022-10-01T02:22:52.788Z,11.90
2022-10-01T02:25:49.181Z,10.47
2022-10-01T02:28:38.201Z,12.03
2022-10-01T02:31:26.173Z,12.40
2022-10-01T02:34:20.085Z,11.33
2022-10-01T02:37:09.347Z,10.17
2022-10-01T02:39:58.405Z,10.57
2022-10-01T02:42:47.840Z,11.07
2022-10-01T02:45:38.165Z,11.33
2022-10-01T02:48:27.662Z,13.13
2022-10-01T02:51:34.232Z,11.60
2022-10-01T02:54:34.305Z,10.70
2022-10-01T02:57:26.852Z,10.97
2022-10-01T03:00:16.992Z,10.80
2022-10-01T03:03:04.721Z,9.03
2022-10-01T03:05:52.412Z,11.27
2022-10-01T03:08:39.851Z,13.30
2022-10-01T03:11:27.350Z,10.37
2022-10-01T03:14:14.825Z,10.97
2022-10-01T03:17:02.766Z,9.53
2022-10-01T03:19:50.249Z,10.07
2022-10-01T03:22:38.165Z,10.13
2022-10-01T03:25:25.668Z,11.73
2022-10-01T03:28:13.869Z,9.23
2022-10-01T03:31:11.006Z,10.23
2022-10-01T03:34:00.381Z,9.87
2022-10-01T03:36:48.438Z,11.67
2022-10-01T03:39:37.084Z,9.37
2022-10-01T03:42:24.530Z,8.10
2022-10-01T03:45:13.291Z,9.57
2022-10-01T03:48:00.768Z,9.73
2022-10-01T03:50:58.220Z,9.90
2022-10-01T03:53:45.917Z,12.10
2022-10-01T03:56:33.827Z,10.93
2022-10-01T03:59:21.788Z,10.87
2022-10-01T04:02:10.154Z,7.50
2022-10-01T04:04:58.017Z,9.10
2022-10-01T04:07:46.210Z,9.00
2022-10-01T04:10:34.405Z,9.40
2022-10-01T04:13:21.961Z,8.97
2022-10-01T04:16:10.202Z,9.00
2022-10-01T04:18:58.213Z,8.50
2022-10-01T04:21:45.664Z,6.77
2022-10-01T04:24:33.096Z,8.80
2022-10-01T04:27:20.969Z,8.13
2022-10-01T04:30:09.276Z,6.97
2022-10-01T04:32:57.180Z,7.80
2022-10-01T04:35:45.075Z,6.40
2022-10-01T04:38:33.014Z,8.57
2022-10-01T04:41:21.302Z,8.83
2022-10-01T04:44:09.611Z,8.03
2022-10-01T04:46:57.511Z,6.57
2022-10-01T04:49:44.924Z,7.53
2022-10-01T04:52:32.607Z,5.73
2022-10-01T04:55:21.625Z,6.90
2022-10-01T04:58:09.502Z,7.43
2022-10-01T05:01:01.635Z,6.87
2022-10-01T05:03:49.894Z,7.33
2022-10-01T05:06:37.354Z,7.20
2022-10-01T05:09:25.315Z,8.23
2022-10-01T05:12:12.567Z,8.17
2022-10-01T05:15:00.510Z,7.20
2022-10-01T05:17:48.451Z,7.67
2022-10-01T05:20:38.181Z,7.10
2022-10-01T05:23:25.485Z,6.60
2022-10-01T05:26:13.482Z,7.80
2022-10-01T05:29:00.807Z,7.63
2022-10-01T05:31:48.859Z,9.37
2022-10-01T05:34:37.287Z,6.47
2022-10-01T05:37:25.164Z,7.87
2022-10-01T05:40:12.597Z,7.67
2022-10-01T05:43:01.767Z,6.30
2022-10-01T05:45:50.346Z,10.67
2022-10-01T05:48:38.479Z,6.40
2022-10-01T05:51:26.360Z,6.93
2022-10-01T05:54:13.999Z,8.00
2022-10-01T05:57:01.949Z,8.30
2022-10-01T05:59:49.800Z,7.33
2022-10-01T06:02:37.318Z,8.13
2022-10-01T06:05:25.405Z,7.07
2022-10-01T06:08:12.741Z,10.53
2022-10-01T06:11:01.106Z,7.70
2022-10-01T06:13:49.636Z,6.00
2022-10-01T06:16:37.400Z,7.27
2022-10-01T06:19:25.322Z,6.17
2022-10-01T06:22:13.271Z,6.77
2022-10-01T06:25:00.704Z,6.27
2022-10-01T06:27:56.211Z,6.50
2022-10-01T06:30:44.142Z,5.70
2022-10-01T06:33:32.089Z,5.90
2022-10-01T06:36:20.477Z,7.17
2022-10-01T06:39:08.266Z,5.57
2022-10-01T06:41:56.494Z,5.97
2022-10-01T06:44:43.899Z,5.27
2022-10-01T06:47:32.006Z,5.47
2022-10-01T06:50:20.535Z,6.80
2022-10-01T06:53:08.720Z,5.13
2022-10-01T06:55:57.419Z,5.43
2022-10-01T06:58:45.613Z,4.77
2022-10-01T07:01:33.252Z,5.00
2022-10-01T07:04:22.016Z,5.63
2022-10-01T07:07:09.896Z,6.60
2022-10-01T07:09:58.022Z,5.67
2022-10-01T07:12:46.713Z,5.83
2022-10-01T07:15:34.120Z,4.67
2022-10-01T07:18:21.909Z,4.70
2022-10-01T07:21:10.030Z,4.90
2022-10-01T07:23:57.609Z,4.00
2022-10-01T07:26:45.538Z,3.77
2022-10-01T07:29:33.208Z,5.68
2022-10-01T07:32:21.304Z,4.83
2022-10-01T07:35:09.735Z,3.97
2022-10-01T07:37:57.274Z,3.93
2022-10-01T07:40:45.495Z,2.40
2022-10-01T07:43:34.631Z,2.60
2022-10-01T07:46:22.571Z,3.33
2022-10-01T07:49:10.531Z,3.03
2022-10-01T07:51:59.033Z,2.92
2022-10-01T07:54:48.019Z,2.58
2022-10-01T07:57:35.699Z,2.73
2022-10-01T08:00:24.355Z,3.17
2022-10-01T08:03:12.163Z,2.57
2022-10-01T08:06:01.145Z,1.85
2022-10-01T08:08:49.362Z,1.65
2022-10-01T08:11:38.425Z,2.70
2022-10-01T08:14:26.715Z,2.25
2022-10-01T08:17:14.485Z,3.27
2022-10-01T08:20:02.281Z,2.00
2022-10-01T08:22:49.533Z,1.95
2022-10-01T08:25:37.615Z,1.52
2022-10-01T08:28:25.779Z,1.60
2022-10-01T08:31:13.580Z,1.77
2022-10-01T08:34:00.976Z,1.73
2022-10-01T08:36:52.086Z,1.95
2022-10-01T08:39:39.531Z,1.33
2022-10-01T08:42:27.363Z,1.65
2022-10-01T08:45:21.848Z,1.90
2022-10-01T08:48:17.058Z,1.63
2022-10-01T08:51:10.349Z,2.25
2022-10-01T08:54:07.137Z,1.63
2022-10-01T08:56:55.333Z,1.10
2022-10-01T08:59:44.187Z,1.30
2022-10-01T09:02:35.906Z,2.80
2022-10-01T09:05:25.352Z,1.45
2022-10-01T09:08:20.649Z,1.38
2022-10-01T09:11:14.465Z,1.10
2022-10-01T09:14:02.686Z,1.13
2022-10-01T09:16:59.619Z,1.35
2022-10-01T09:19:55.346Z,1.77
2022-10-01T09:22:49.655Z,1.23
2022-10-01T09:25:38.411Z,1.10
2022-10-01T09:28:25.912Z,1.08
2022-10-01T09:31:17.471Z,1.75
2022-10-01T09:34:21.168Z,1.30
2022-10-01T09:37:33.209Z,1.23
2022-10-01T09:40:21.010Z,2.70
2022-10-01T09:43:10.310Z,1.50
2022-10-01T09:45:58.372Z,1.27
2022-10-01T09:48:49.817Z,1.17
2022-10-01T09:51:41.215Z,2.50
2022-10-01T09:54:55.688Z,1.10
2022-10-01T09:57:48.770Z,1.40
2022-10-01T10:00:37.345Z,2.15
2022-10-01T10:03:30.663Z,1.17
2022-10-01T10:06:23.972Z,1.27
2022-10-01T10:09:17.260Z,1.02
2022-10-01T10:12:08.697Z,1.13
2022-10-01T10:14:58.956Z,1.85
2022-10-01T10:17:50.512Z,1.30
2022-10-01T10:20:43.032Z,1.30
2022-10-01T10:23:31.321Z,2.35
2022-10-01T10:26:21.383Z,1.77
2022-10-01T10:29:24.913Z,1.85
2022-10-01T10:32:29.019Z,1.63
2022-10-01T10:35:18.883Z,3.72
2022-10-01T10:38:06.446Z,1.30
2022-10-01T10:40:54.002Z,2.17
2022-10-01T10:43:44.656Z,1.40
2022-10-01T10:46:36.285Z,2.27
2022-10-01T10:49:27.377Z,2.57
2022-10-01T10:52:25.606Z,1.70
2022-10-01T10:55:26.814Z,1.60
2022-10-01T10:58:19.084Z,2.43
2022-10-01T11:01:10.485Z,1.97
2022-10-01T11:04:00.332Z,3.07
2022-10-01T11:06:58.592Z,2.45
2022-10-01T11:09:54.566Z,3.37
2022-10-01T11:12:41.747Z,2.03
2022-10-01T11:15:37.100Z,2.73
2022-10-01T11:18:38.314Z,3.13
2022-10-01T11:21:38.048Z,2.23
2022-10-01T11:24:48.470Z,3.00
2022-10-01T11:27:39.506Z,2.53
2022-10-01T11:30:30.802Z,3.57
2022-10-01T11:33:38.873Z,5.60
2022-10-01T11:36:35.292Z,2.57
2022-10-01T11:39:24.021Z,2.93
2022-10-01T11:42:13.990Z,1.80
2022-10-01T11:45:05.069Z,1.90
2022-10-01T11:47:58.278Z,2.07
2022-10-01T11:50:48.319Z,2.30
2022-10-01T11:53:41.050Z,2.50
2022-10-01T11:56:49.046Z,2.43
2022-10-01T11:59:50.040Z,1.90
2022-10-01T12:02:46.810Z,2.07
2022-10-01T12:05:35.443Z,2.27
2022-10-01T12:08:25.075Z,1.97
2022-10-01T12:11:19.203Z,2.43
2022-10-01T12:14:18.121Z,1.60
2022-10-01T12:17:09.756Z,2.10
2022-10-01T12:19:59.767Z,2.17
2022-10-01T12:22:48.644Z,2.03
2022-10-01T12:25:54.513Z,2.77
2022-10-01T12:28:52.752Z,1.90
2022-10-01T12:31:44.004Z,2.07
2022-10-01T12:35:00.663Z,2.40
2022-10-01T12:38:03.261Z,1.43
2022-10-01T12:40:55.175Z,1.80
2022-10-01T12:43:52.449Z,1.93
2022-10-01T12:46:43.147Z,1.40
2022-10-01T12:49:30.593Z,2.13
2022-10-01T12:52:33.880Z,1.30
2022-10-01T12:55:34.279Z,1.87
2022-10-01T12:58:25.112Z,1.70
2022-10-01T13:01:12.955Z,1.53
2022-10-01T13:04:06.490Z,1.80
2022-10-01T13:06:54.565Z,1.27
2022-10-01T13:09:51.102Z,1.80
2022-10-01T13:12:56.746Z,1.77
2022-10-01T13:15:51.513Z,1.73
2022-10-01T13:18:52.166Z,1.20
2022-10-01T13:22:09.408Z,1.10
2022-10-01T13:24:58.030Z,4.80
2022-10-01T13:28:08.714Z,1.43
2022-10-01T13:30:56.566Z,1.10
2022-10-01T13:33:54.136Z,1.27
2022-10-01T13:36:41.512Z,0.77
2022-10-01T13:39:38.875Z,1.10
2022-10-01T13:42:32.228Z,1.13
2022-10-01T13:45:30.723Z,0.80
2022-10-01T13:48:34.825Z,1.00
2022-10-01T13:51:22.107Z,1.73
2022-10-01T13:54:18.906Z,0.83
2022-10-01T13:57:25.161Z,0.70
2022-10-01T14:00:12.754Z,1.00
2022-10-01T14:03:05.792Z,1.00
2022-10-01T14:06:04.672Z,1.57
2022-10-01T14:08:55.105Z,1.30
2022-10-01T14:12:06.643Z,1.23
2022-10-01T14:15:17.434Z,1.10
2022-10-01T14:18:07.406Z,1.83
2022-10-01T14:20:54.978Z,1.87
2022-10-01T14:23:45.594Z,1.63
2022-10-01T14:26:33.500Z,2.43
2022-10-01T14:37:21.106Z,1.75
2022-10-01T14:40:20.384Z,3.27
2022-10-01T14:43:22.211Z,1.23
2022-10-01T14:46:14.924Z,0.93
2022-10-01T14:49:03.250Z,0.80
2022-10-01T14:51:51.820Z,0.97
2022-10-01T14:54:44.193Z,0.90
2022-10-01T14:57:35.153Z,1.53
2022-10-01T15:00:28.502Z,1.37
2022-10-01T15:03:15.877Z,1.15
2022-10-01T15:06:06.162Z,1.23
2022-10-01T15:08:54.915Z,1.50
2022-10-01T15:11:44.779Z,3.22
2022-10-01T15:14:32.832Z,1.00
2022-10-01T15:17:28.178Z,1.37
2022-10-01T15:20:16.596Z,1.37
2022-10-01T15:23:06.030Z,1.53
2022-10-01T15:25:54.000Z,2.13
2022-10-01T15:28:42.135Z,1.20
2022-10-01T15:31:29.721Z,1.00
2022-10-01T15:34:19.000Z,2.63
2022-10-01T15:37:06.487Z,1.40
2022-10-01T15:39:54.931Z,1.30
2022-10-01T15:42:54.000Z,1.40
2022-10-01T15:45:42.873Z,1.80
2022-10-01T15:48:30.672Z,1.87
2022-10-01T15:51:26.752Z,1.60
2022-10-01T15:54:15.588Z,6.77
2022-10-01T15:57:04.346Z,1.33
2022-10-01T15:59:58.928Z,1.83
2022-10-01T16:02:46.379Z,2.58
2022-10-01T16:05:39.896Z,1.30
2022-10-01T16:08:34.094Z,1.17
2022-10-01T16:11:24.274Z,2.10
2022-10-01T16:14:30.740Z,2.38
2022-10-01T16:17:18.513Z,1.00
2022-10-01T16:20:15.213Z,1.70
2022-10-01T16:23:24.294Z,1.20
2022-10-01T16:26:36.499Z,1.73
2022-10-01T16:29:25.695Z,1.00
2022-10-01T16:32:14.913Z,1.93
2022-10-01T16:35:29.317Z,1.90
2022-10-01T16:38:16.623Z,1.10
2022-10-01T16:41:05.452Z,1.20
2022-10-01T16:43:53.645Z,1.00
2022-10-01T16:46:41.920Z,0.93
2022-10-01T16:49:29.774Z,1.47
2022-10-01T16:52:18.350Z,1.10
2022-10-01T16:55:14.231Z,1.93
2022-10-01T16:58:02.157Z,1.13
2022-10-01T17:00:50.004Z,2.10
2022-10-01T17:03:37.469Z,1.20
2022-10-01T17:06:24.912Z,2.17
2022-10-01T17:09:12.730Z,2.88
2022-10-01T17:12:01.776Z,0.80
2022-10-01T17:14:49.446Z,1.20
2022-10-01T17:17:37.258Z,1.43
2022-10-01T17:20:26.444Z,1.30
2022-10-01T17:23:14.941Z,1.20
2022-10-01T17:26:03.004Z,1.20
2022-10-01T17:28:50.941Z,1.13
2022-10-01T17:31:40.738Z,0.80
2022-10-01T17:34:28.187Z,0.80
2022-10-01T17:37:16.049Z,0.77
2022-10-01T17:40:04.709Z,1.77
2022-10-01T17:42:52.572Z,1.35
2022-10-01T17:45:40.537Z,1.20
2022-10-01T17:48:28.842Z,1.00
2022-10-01T17:51:17.393Z,1.13
2022-10-01T17:54:04.945Z,0.82
2022-10-01T17:56:53.774Z,5.93
2022-10-01T17:59:41.571Z,1.20
2022-10-01T18:02:47.248Z,1.02
2022-10-01T18:05:35.153Z,0.80
2022-10-01T18:08:33.232Z,0.82
2022-10-01T18:11:30.619Z,1.27
2022-10-01T18:14:18.702Z,1.00
2022-10-01T18:17:06.182Z,1.05
2022-10-01T18:19:54.434Z,1.05
2022-10-01T18:22:42.018Z,1.45
2022-10-01T18:25:29.888Z,1.00
2022-10-01T18:28:17.784Z,0.90
2022-10-01T18:31:11.530Z,0.70
2022-10-01T18:34:00.512Z,0.65
2022-10-01T18:36:53.753Z,1.27
2022-10-01T18:39:45.691Z,1.00
2022-10-01T18:42:52.520Z,0.77
2022-10-01T18:45:40.106Z,1.40
2022-10-01T18:48:31.113Z,1.58
2022-10-01T18:51:26.398Z,1.30
2022-10-01T18:54:20.445Z,1.13
2022-10-01T18:57:16.932Z,0.73
2022-10-01T19:00:17.811Z,1.30
2022-10-01T19:03:23.861Z,1.40
2022-10-01T19:06:30.697Z,1.63
2022-10-01T19:09:32.024Z,1.23
2022-10-01T19:12:38.704Z,1.05
2022-10-01T19:15:29.643Z,1.25
2022-10-01T19:18:29.170Z,2.80
2022-10-01T19:21:16.672Z,0.80
2022-10-01T19:24:07.602Z,1.08
2022-10-01T19:26:58.772Z,1.13
2022-10-01T19:29:54.983Z,1.80
2022-10-01T19:32:48.819Z,1.20
2022-10-01T19:35:44.768Z,1.55
2022-10-01T19:38:37.897Z,1.20
2022-10-01T19:41:33.882Z,1.20
2022-10-01T19:44:30.732Z,1.45
2022-10-01T19:47:28.956Z,0.70
2022-10-01T19:50:19.455Z,0.98
2022-10-01T19:53:12.922Z,0.70
2022-10-01T19:56:02.490Z,1.33
2022-10-01T19:58:50.516Z,0.98
2022-10-01T20:01:40.085Z,1.25
2022-10-01T20:04:44.564Z,1.52
2022-10-01T20:07:48.917Z,0.82
2022-10-01T20:10:39.895Z,1.08
2022-10-01T20:13:44.610Z,1.20
2022-10-01T20:16:45.600Z,1.65
2022-10-01T20:19:43.514Z,1.75
2022-10-01T20:22:39.386Z,1.42
2022-10-01T20:25:36.240Z,0.85
2022-10-01T20:28:26.895Z,1.15
2022-10-01T20:31:18.023Z,0.73
2022-10-01T20:34:11.325Z,1.67
2022-10-01T20:37:09.067Z,2.05
2022-10-01T20:40:01.712Z,1.23
2022-10-01T20:42:50.346Z,0.77
2022-10-01T20:45:40.493Z,1.38
2022-10-01T20:48:34.768Z,1.33
2022-10-01T20:51:30.965Z,2.40
2022-10-01T20:54:23.660Z,1.70
2022-10-01T20:57:31.718Z,0.70
2022-10-01T21:00:23.750Z,1.20
2022-10-01T21:03:11.790Z,0.75
2022-10-01T21:06:01.619Z,0.70
2022-10-01T21:08:50.204Z,0.68
2022-10-01T21:11:56.770Z,0.60
2022-10-01T21:14:53.747Z,0.63
2022-10-01T21:17:44.407Z,0.65
2022-10-01T21:20:50.885Z,0.57
2022-10-01T21:24:01.703Z,0.65
2022-10-01T21:27:02.161Z,1.00
2022-10-01T21:30:16.867Z,2.03
2022-10-01T21:33:08.246Z,0.82
2022-10-01T21:36:19.906Z,0.60
2022-10-01T21:39:12.902Z,0.75
2022-10-01T21:42:11.580Z,0.88
2022-10-01T21:45:05.615Z,0.60
2022-10-01T21:48:16.096Z,0.50
2022-10-01T21:51:09.650Z,0.70
2022-10-01T21:54:24.472Z,0.40
2022-10-01T21:57:30.737Z,0.70
2022-10-01T22:00:24.677Z,0.60
2022-10-01T22:03:16.737Z,0.93
2022-10-01T22:06:09.812Z,1.50
2022-10-01T22:09:03.515Z,0.60
2022-10-01T22:11:52.803Z,0.68
2022-10-01T22:14:40.990Z,0.82
2022-10-01T22:17:32.263Z,1.33
2022-10-01T22:20:21.058Z,1.75
2022-10-01T22:23:10.647Z,0.63
2022-10-01T22:25:59.328Z,0.60
2022-10-01T22:28:49.720Z,1.40
2022-10-01T22:31:37.278Z,0.70
2022-10-01T22:34:26.731Z,0.60
2022-10-01T22:37:16.413Z,1.77
2022-10-01T22:40:21.516Z,1.20
2022-10-01T22:43:11.146Z,0.87
2022-10-01T22:46:11.074Z,0.77
2022-10-01T22:49:08.419Z,0.77
2022-10-01T22:52:19.089Z,1.60
2022-10-01T22:55:19.056Z,1.20
2022-10-01T22:58:06.336Z,0.60
2022-10-01T23:01:04.237Z,1.20
2022-10-01T23:04:04.796Z,0.60
2022-10-01T23:06:58.395Z,3.43
2022-10-01T23:09:58.080Z,0.60
2022-10-01T23:12:45.493Z,0.80
2022-10-01T23:15:45.715Z,1.08
2022-10-01T23:18:35.175Z,0.77
2022-10-01T23:21:41.976Z,1.23
2022-10-01T23:24:47.975Z,0.83
2022-10-01T23:27:54.795Z,0.98
2022-10-01T23:30:45.844Z,2.35
2022-10-01T23:33:39.513Z,0.70
2022-10-01T23:36:27.521Z,0.88
2022-10-01T23:39:27.684Z,0.50
2022-10-01T23:42:22.275Z,1.33
2022-10-01T23:45:12.762Z,0.77
2022-10-01T23:48:04.677Z,2.33
2022-10-01T23:50:55.028Z,1.20
2022-10-01T23:53:46.087Z,1.20
2022-10-01T23:56:55.066Z,2.70
2022-10-01T23:59:45.563Z,1.70
